Time;durP1;ratioP1;P1;durP2;ratioP2;P2;SDS_P1;SDS_P2;PMS_P1;PMS_P2;Temp;Humidity;BMP_temperature;BMP_pressure;BME280_temperature;BME280_humidity;BME280_pressure;Samples;Min_cycle;Max_cycle;Signal;HPM_P1;HPM_P2
2021/06/03 00:00:37;;;;;;;12.50;6.83;;;;;;;;;;10527658;28;20605;-69
2021/06/03 00:05:42;;;;;;;14.77;7.57;;;;;;;;;;10515367;28;20216;-67
2021/06/03 00:10:45;;;;;;;11.23;7.17;;;;;;;;;;10526481;28;20254;-67
2021/06/03 00:15:48;;;;;;;14.00;7.00;;;;;;;;;;10525540;28;20303;-68
2021/06/03 00:20:51;;;;;;;12.43;7.13;;;;;;;;;;10524781;28;20199;-67
2021/06/03 00:25:53;;;;;;;11.40;6.57;;;;;;;;;;10521349;28;20219;-68
2021/06/03 00:30:55;;;;;;;13.07;7.00;;;;;;;;;;10526633;28;20208;-68
2021/06/03 00:35:59;;;;;;;12.27;6.80;;;;;;;;;;10520526;28;20220;-67
2021/06/03 00:41:01;;;;;;;12.60;6.80;;;;;;;;;;10518694;28;20209;-68
2021/06/03 00:46:04;;;;;;;14.07;6.63;;;;;;;;;;10520857;28;20257;-69
2021/06/03 00:51:08;;;;;;;13.07;6.40;;;;;;;;;;10524232;28;20215;-68
2021/06/03 00:56:10;;;;;;;12.33;6.20;;;;;;;;;;10524438;28;20294;-69
2021/06/03 01:01:13;;;;;;;14.03;6.77;;;;;;;;;;10523440;28;20207;-69
2021/06/03 01:06:18;;;;;;;13.73;6.20;;;;;;;;;;10525306;28;20639;-69
2021/06/03 01:11:24;;;;;;;10.60;6.17;;;;;;;;;;10513045;28;20311;-69
2021/06/03 01:16:26;;;;;;;13.23;6.80;;;;;;;;;;10527104;28;20219;-69
2021/06/03 01:21:32;;;;;;;12.00;6.63;;;;;;;;;;10517453;28;20187;-69
2021/06/03 01:26:35;;;;;;;14.30;7.33;;;;;;;;;;10525481;28;20208;-69
2021/06/03 01:31:38;;;;;;;11.80;7.17;;;;;;;;;;10520441;28;20536;-68
2021/06/03 01:36:41;;;;;;;14.10;7.70;;;;;;;;;;10520673;28;20212;-67
2021/06/03 01:41:45;;;;;;;11.13;6.50;;;;;;;;;;10520493;28;20200;-67
2021/06/03 01:46:48;;;;;;;11.90;6.80;;;;;;;;;;10514679;28;20297;-67
2021/06/03 01:51:51;;;;;;;10.77;6.93;;;;;;;;;;10528379;28;20219;-67
2021/06/03 01:56:54;;;;;;;10.80;6.20;;;;;;;;;;10518561;28;20284;-68
2021/06/03 02:01:56;;;;;;;9.73;5.20;;;;;;;;;;10521835;28;20655;-68
2021/06/03 02:06:59;;;;;;;10.73;5.33;;;;;;;;;;10521145;28;20712;-69
2021/06/03 02:12:03;;;;;;;10.07;5.50;;;;;;;;;;10516759;28;20207;-69
2021/06/03 02:17:08;;;;;;;9.77;5.50;;;;;;;;;;10524543;28;20221;-68
2021/06/03 02:22:11;;;;;;;9.17;5.17;;;;;;;;;;10518097;28;20184;-68
2021/06/03 02:27:15;;;;;;;10.20;5.27;;;;;;;;;;10533315;28;20222;-67
2021/06/03 02:32:19;;;;;;;8.43;4.60;;;;;;;;;;10526378;28;20249;-68
2021/06/03 02:37:22;;;;;;;9.83;5.07;;;;;;;;;;10523192;28;20697;-68
2021/06/03 02:42:26;;;;;;;9.10;4.13;;;;;;;;;;10532630;28;20233;-68
2021/06/03 02:47:28;;;;;;;10.03;4.97;;;;;;;;;;10530249;28;20260;-69
2021/06/03 02:52:30;;;;;;;7.40;4.10;;;;;;;;;;10527420;28;20231;-68
2021/06/03 02:57:33;;;;;;;8.00;3.70;;;;;;;;;;10531605;28;20203;-68
2021/06/03 03:02:36;;;;;;;7.37;3.63;;;;;;;;;;10528754;28;20337;-68
2021/06/03 03:07:39;;;;;;;7.60;3.80;;;;;;;;;;10526045;28;20231;-68
2021/06/03 03:12:42;;;;;;;7.70;3.83;;;;;;;;;;10525433;28;20215;-69
2021/06/03 03:17:45;;;;;;;6.47;3.30;;;;;;;;;;10528319;28;20279;-68
2021/06/03 03:22:47;;;;;;;8.17;3.87;;;;;;;;;;10523315;28;20223;-68
2021/06/03 03:27:51;;;;;;;6.77;3.63;;;;;;;;;;10525878;28;20223;-69
2021/06/03 03:32:54;;;;;;;7.37;3.80;;;;;;;;;;10532982;28;20216;-70
2021/06/03 03:37:56;;;;;;;8.47;3.70;;;;;;;;;;10528328;28;20241;-68
2021/06/03 03:43:00;;;;;;;6.37;3.60;;;;;;;;;;10525873;28;20207;-67
2021/06/03 03:48:03;;;;;;;8.37;4.30;;;;;;;;;;10522842;28;20257;-68
2021/06/03 03:53:06;;;;;;;8.50;3.60;;;;;;;;;;10521246;28;20268;-69
2021/06/03 03:58:09;;;;;;;6.60;3.67;;;;;;;;;;10530982;28;20253;-68
2021/06/03 04:03:12;;;;;;;7.30;4.00;;;;;;;;;;10530579;28;20203;-68
2021/06/03 04:08:14;;;;;;;7.93;3.90;;;;;;;;;;10524195;28;20191;-68
2021/06/03 04:13:17;;;;;;;8.53;3.93;;;;;;;;;;10530297;28;20644;-68
2021/06/03 04:18:43;;;;;;;8.50;3.97;;;;;;;;;;10519863;28;20199;-69
2021/06/03 04:23:46;;;;;;;6.67;3.50;;;;;;;;;;10525338;28;20302;-69
2021/06/03 04:28:49;;;;;;;8.53;4.47;;;;;;;;;;10526303;28;20196;-68
2021/06/03 04:33:51;;;;;;;7.03;3.47;;;;;;;;;;10526148;28;20220;-68
2021/06/03 04:38:54;;;;;;;6.23;3.83;;;;;;;;;;10526269;28;20286;-68
2021/06/03 04:43:57;;;;;;;6.33;3.83;;;;;;;;;;10524222;28;20820;-68
2021/06/03 04:48:59;;;;;;;7.43;3.87;;;;;;;;;;10521852;28;20199;-68
2021/06/03 04:54:02;;;;;;;6.63;3.70;;;;;;;;;;10521171;28;20642;-68
2021/06/03 04:59:06;;;;;;;6.70;3.80;;;;;;;;;;10530762;28;20249;-69
2021/06/03 05:04:08;;;;;;;7.13;3.57;;;;;;;;;;10523768;28;20212;-71
2021/06/03 05:09:10;;;;;;;6.93;3.80;;;;;;;;;;10524246;28;20188;-70
2021/06/03 05:14:14;;;;;;;6.87;4.00;;;;;;;;;;10521167;28;20272;-69
2021/06/03 05:19:16;;;;;;;7.83;4.00;;;;;;;;;;10524359;28;20290;-69
2021/06/03 05:24:19;;;;;;;7.30;3.83;;;;;;;;;;10522592;28;20302;-69
2021/06/03 05:29:22;;;;;;;7.53;3.50;;;;;;;;;;10516400;28;20217;-68
2021/06/03 05:34:24;;;;;;;6.93;3.73;;;;;;;;;;10515745;28;20219;-69
2021/06/03 05:39:26;;;;;;;6.83;3.60;;;;;;;;;;10517574;28;20382;-68
2021/06/03 05:44:30;;;;;;;6.40;3.63;;;;;;;;;;10520767;28;20207;-70
2021/06/03 05:49:32;;;;;;;8.17;3.70;;;;;;;;;;10523129;28;20656;-69
2021/06/03 05:54:34;;;;;;;5.97;3.30;;;;;;;;;;10519816;28;20203;-69
2021/06/03 05:59:38;;;;;;;7.97;3.47;;;;;;;;;;10524093;28;20241;-69
2021/06/03 06:10:00;;;;;;;6.63;3.30;;;;;;;;;;10522892;28;77481;-69
2021/06/03 06:15:05;;;;;;;5.90;3.23;;;;;;;;;;10523503;28;20687;-69
2021/06/03 06:20:07;;;;;;;6.10;3.10;;;;;;;;;;10522077;28;20219;-69
2021/06/03 06:25:10;;;;;;;5.33;3.30;;;;;;;;;;10526966;28;20913;-70
2021/06/03 06:30:14;;;;;;;6.27;2.97;;;;;;;;;;10526002;28;20208;-69
2021/06/03 06:35:17;;;;;;;5.17;2.93;;;;;;;;;;10528041;28;20227;-69
2021/06/03 06:40:19;;;;;;;5.80;3.20;;;;;;;;;;10522271;28;20199;-68
2021/06/03 06:45:23;;;;;;;4.87;2.90;;;;;;;;;;10523273;28;20218;-68
2021/06/03 06:50:26;;;;;;;5.77;3.00;;;;;;;;;;10521747;28;20282;-70
2021/06/03 06:55:28;;;;;;;5.53;3.13;;;;;;;;;;10520236;28;20594;-69
2021/06/03 07:00:34;;;;;;;6.67;3.00;;;;;;;;;;10522028;28;20350;-70
2021/06/03 07:05:36;;;;;;;6.33;3.30;;;;;;;;;;10521895;28;20329;-69
2021/06/03 07:10:38;;;;;;;5.67;3.33;;;;;;;;;;10520824;28;20219;-69
2021/06/03 07:15:42;;;;;;;6.50;3.30;;;;;;;;;;10520215;28;20227;-69
2021/06/03 07:20:44;;;;;;;5.53;2.73;;;;;;;;;;10528921;28;20522;-71
2021/06/03 07:25:46;;;;;;;6.97;3.20;;;;;;;;;;10515086;28;20208;-68
2021/06/03 07:30:49;;;;;;;6.03;3.23;;;;;;;;;;10520557;28;20226;-68
2021/06/03 07:35:51;;;;;;;6.23;3.13;;;;;;;;;;10519767;28;20694;-68
2021/06/03 07:40:54;;;;;;;6.13;3.10;;;;;;;;;;10522242;28;20188;-69
2021/06/03 07:45:58;;;;;;;9.37;3.70;;;;;;;;;;10520466;28;20238;-68
2021/06/03 07:51:00;;;;;;;8.65;3.35;;;;;;;;;;10530508;28;20210;-70
2021/06/03 07:56:02;;;;;;;6.00;3.20;;;;;;;;;;10514383;28;20242;-70
2021/06/03 08:01:06;;;;;;;4.15;2.80;;;;;;;;;;10514210;28;20283;-70
2021/06/03 08:06:08;;;;;;;5.75;3.10;;;;;;;;;;10523960;28;20209;-71
2021/06/03 08:11:10;;;;;;;4.43;3.00;;;;;;;;;;10517430;28;20692;-71
2021/06/03 08:16:14;;;;;;;4.78;3.33;;;;;;;;;;10515308;28;20303;-69
2021/06/03 08:21:16;;;;;;;6.10;3.25;;;;;;;;;;10508355;28;20610;-70
2021/06/03 08:26:19;;;;;;;4.93;3.05;;;;;;;;;;10516623;28;20223;-70
2021/06/03 08:31:22;;;;;;;5.22;3.35;;;;;;;;;;10519293;28;20239;-70
2021/06/03 08:36:25;;;;;;;5.97;3.10;;;;;;;;;;10526275;28;20262;-71
2021/06/03 08:41:27;;;;;;;5.15;3.10;;;;;;;;;;10515145;28;20505;-70
2021/06/03 08:46:31;;;;;;;6.47;3.60;;;;;;;;;;10521358;28;20219;-71
2021/06/03 08:51:34;;;;;;;6.10;3.20;;;;;;;;;;10507742;28;20203;-72
2021/06/03 08:56:36;;;;;;;5.55;3.22;;;;;;;;;;10517257;28;20298;-69
2021/06/03 09:01:41;;;;;;;5.13;3.50;;;;;;;;;;10508120;28;20192;-70
2021/06/03 09:06:43;;;;;;;5.68;3.38;;;;;;;;;;10518557;28;20212;-68
2021/06/03 09:11:46;;;;;;;5.03;3.40;;;;;;;;;;10528966;28;20250;-69
2021/06/03 09:16:52;;;;;;;3.80;3.40;;;;;;;;;;10515822;28;20249;-69
2021/06/03 09:21:54;;;;;;;6.07;3.40;;;;;;;;;;10523852;28;20191;-69
2021/06/03 09:26:57;;;;;;;4.15;3.75;;;;;;;;;;10522649;28;20689;-70
2021/06/03 09:32:06;;;;;;;4.95;3.70;;;;;;;;;;10518151;28;20282;-68
2021/06/03 09:37:09;;;;;;;5.53;3.60;;;;;;;;;;10524527;28;20316;-69
2021/06/03 09:42:15;;;;;;;8.40;3.90;;;;;;;;;;10512914;28;20560;-70
2021/06/03 09:47:19;;;;;;;4.78;3.40;;;;;;;;;;10520562;28;20610;-69
2021/06/03 09:52:22;;;;;;;6.65;4.55;;;;;;;;;;10526565;28;20260;-68
2021/06/03 09:57:28;;;;;;;6.72;3.70;;;;;;;;;;10523773;28;20712;-69
2021/06/03 10:02:33;;;;;;;7.85;5.28;;;;;;;;;;10511150;28;20218;-68
2021/06/03 10:07:35;;;;;;;6.25;3.63;;;;;;;;;;10519413;28;20226;-69
2021/06/03 10:12:44;;;;;;;5.72;3.80;;;;;;;;;;10528413;28;20199;-69
2021/06/03 10:17:49;;;;;;;5.35;3.80;;;;;;;;;;10515360;28;20200;-68
2021/06/03 10:22:53;;;;;;;5.55;4.07;;;;;;;;;;10520215;28;20219;-69
2021/06/03 10:27:56;;;;;;;5.75;3.55;;;;;;;;;;10521423;28;20655;-68
2021/06/03 10:33:02;;;;;;;5.78;3.50;;;;;;;;;;10516727;28;20725;-68
2021/06/03 10:38:06;;;;;;;7.25;5.00;;;;;;;;;;10518887;28;20279;-69
2021/06/03 10:43:08;;;;;;;9.27;6.18;;;;;;;;;;10517833;28;20632;-68
2021/06/03 10:48:12;;;;;;;6.43;4.15;;;;;;;;;;10534737;28;20271;-67
2021/06/03 10:53:15;;;;;;;5.75;3.75;;;;;;;;;;10534342;28;20207;-69
2021/06/03 10:58:18;;;;;;;5.82;3.13;;;;;;;;;;10531768;28;20690;-70
2021/06/03 11:03:24;;;;;;;5.88;3.70;;;;;;;;;;10529151;28;20220;-70
2021/06/03 11:08:30;;;;;;;5.40;4.03;;;;;;;;;;10522084;28;20275;-70
2021/06/03 11:13:32;;;;;;;5.05;3.80;;;;;;;;;;10528518;28;20212;-69
2021/06/03 11:18:58;;;;;;;4.65;3.92;;;;;;;;;;10530674;28;20241;-69
2021/06/03 11:24:03;;;;;;;5.13;4.00;;;;;;;;;;10527021;28;20286;-70
2021/06/03 11:29:09;;;;;;;4.50;3.58;;;;;;;;;;10524700;28;20547;-69
2021/06/03 11:34:12;;;;;;;5.90;4.00;;;;;;;;;;10528646;28;20203;-69
2021/06/03 11:39:32;;;;;;;9.65;6.78;;;;;;;;;;10522143;28;20215;-69
2021/06/03 11:44:55;;;;;;;5.70;4.38;;;;;;;;;;10534192;28;20219;-69
2021/06/03 11:49:57;;;;;;;6.15;4.22;;;;;;;;;;10527793;28;20227;-70
2021/06/03 11:55:00;;;;;;;8.13;5.50;;;;;;;;;;10520489;28;20539;-69
2021/06/03 12:00:06;;;;;;;5.10;3.85;;;;;;;;;;10524770;28;20223;-69
2021/06/03 12:05:16;;;;;;;7.15;3.85;;;;;;;;;;10528368;28;20711;-69
2021/06/03 12:10:19;;;;;;;8.55;5.90;;;;;;;;;;10529393;28;20200;-70
2021/06/03 12:15:23;;;;;;;7.10;4.70;;;;;;;;;;10522385;28;20215;-70
2021/06/03 12:20:26;;;;;;;6.22;3.97;;;;;;;;;;10524379;28;20589;-69
2021/06/03 12:25:32;;;;;;;6.85;4.25;;;;;;;;;;10527739;28;20211;-70
2021/06/03 12:30:36;;;;;;;5.80;3.85;;;;;;;;;;10521285;28;20207;-70
2021/06/03 12:35:40;;;;;;;7.43;3.50;;;;;;;;;;10521971;28;20337;-69
2021/06/03 12:40:42;;;;;;;6.38;3.45;;;;;;;;;;10521310;28;20191;-68
2021/06/03 12:45:47;;;;;;;7.22;3.78;;;;;;;;;;10519723;28;20232;-68
2021/06/03 12:50:50;;;;;;;5.68;3.58;;;;;;;;;;10525707;28;20278;-69
2021/06/03 12:55:52;;;;;;;6.47;4.30;;;;;;;;;;10528685;28;20212;-69
2021/06/03 13:00:56;;;;;;;6.93;3.55;;;;;;;;;;10529769;28;20231;-67
2021/06/03 13:06:01;;;;;;;5.63;3.80;;;;;;;;;;10521011;28;20212;-66
2021/06/03 13:11:03;;;;;;;5.57;3.63;;;;;;;;;;10523666;28;20204;-69
2021/06/03 13:16:07;;;;;;;8.13;4.10;;;;;;;;;;10525655;28;20216;-66
2021/06/03 13:21:12;;;;;;;6.55;3.47;;;;;;;;;;10522635;28;20192;-67
2021/06/03 13:26:17;;;;;;;6.32;3.28;;;;;;;;;;10522725;28;20665;-66
2021/06/03 13:31:21;;;;;;;6.10;3.50;;;;;;;;;;10521503;28;20271;-67
2021/06/03 13:36:23;;;;;;;6.03;3.45;;;;;;;;;;10513433;28;20215;-67
2021/06/03 13:41:25;;;;;;;4.75;3.10;;;;;;;;;;10515394;28;20218;-67
2021/06/03 13:46:28;;;;;;;6.97;4.05;;;;;;;;;;10523102;28;20219;-68
2021/06/03 13:51:34;;;;;;;6.53;3.50;;;;;;;;;;10523334;28;20624;-69
2021/06/03 13:56:36;;;;;;;5.72;3.40;;;;;;;;;;10514458;28;20259;-67
2021/06/03 14:01:42;;;;;;;5.68;3.42;;;;;;;;;;10531670;28;20219;-68
2021/06/03 14:06:45;;;;;;;5.40;3.40;;;;;;;;;;10524252;28;20264;-68
2021/06/03 14:11:52;;;;;;;5.70;3.55;;;;;;;;;;10523424;28;20250;-68
2021/06/03 14:16:57;;;;;;;5.00;3.30;;;;;;;;;;10525332;28;20223;-68
2021/06/03 14:22:04;;;;;;;5.40;3.38;;;;;;;;;;10534162;28;20212;-69
2021/06/03 14:27:17;;;;;;;4.82;3.13;;;;;;;;;;10530061;28;20219;-67
2021/06/03 14:32:21;;;;;;;5.97;3.15;;;;;;;;;;10535950;28;20588;-67
2021/06/03 14:37:27;;;;;;;9.15;6.05;;;;;;;;;;10535977;28;20208;-68
2021/06/03 14:42:35;;;;;;;5.68;3.40;;;;;;;;;;10527436;28;20278;-69
2021/06/03 14:47:39;;;;;;;6.18;3.30;;;;;;;;;;10533741;28;20722;-67
2021/06/03 14:52:42;;;;;;;7.65;5.38;;;;;;;;;;10525053;28;20196;-69
2021/06/03 14:57:44;;;;;;;6.78;3.10;;;;;;;;;;10534502;28;20306;-68
2021/06/03 15:02:48;;;;;;;4.25;2.90;;;;;;;;;;10528463;28;20646;-68
2021/06/03 15:07:51;;;;;;;4.63;2.92;;;;;;;;;;10532382;28;20556;-68
2021/06/03 15:12:55;;;;;;;10.30;4.95;;;;;;;;;;10526668;28;20200;-67
2021/06/03 15:18:00;;;;;;;5.07;2.70;;;;;;;;;;10529767;28;20590;-67
2021/06/03 15:23:04;;;;;;;5.07;2.75;;;;;;;;;;10527432;28;20225;-70
2021/06/03 15:28:07;;;;;;;4.05;2.53;;;;;;;;;;10528817;28;20459;-68
2021/06/03 15:33:11;;;;;;;5.18;3.00;;;;;;;;;;10528585;28;20260;-68
2021/06/03 15:38:14;;;;;;;5.43;2.70;;;;;;;;;;10530247;28;20245;-69
2021/06/03 15:43:16;;;;;;;5.53;2.90;;;;;;;;;;10520220;28;20592;-68
2021/06/03 15:48:20;;;;;;;4.80;2.53;;;;;;;;;;10523759;28;20295;-69
2021/06/03 15:53:23;;;;;;;4.10;2.58;;;;;;;;;;10528258;28;20614;-68
2021/06/03 15:58:26;;;;;;;4.20;3.05;;;;;;;;;;10527949;28;20271;-68
2021/06/03 16:03:29;;;;;;;4.35;2.80;;;;;;;;;;10531353;28;20276;-69
2021/06/03 16:08:31;;;;;;;4.10;2.67;;;;;;;;;;10534496;27;20192;-68
2021/06/03 16:13:33;;;;;;;6.15;3.03;;;;;;;;;;10537854;28;20315;-69
2021/06/03 16:18:37;;;;;;;5.65;3.00;;;;;;;;;;10523628;28;20282;-69
2021/06/03 16:23:39;;;;;;;4.03;2.60;;;;;;;;;;10515421;28;20327;-67
2021/06/03 16:28:41;;;;;;;4.45;2.67;;;;;;;;;;10525578;28;20283;-68
2021/06/03 16:33:45;;;;;;;4.90;3.00;;;;;;;;;;10528095;28;20221;-68
2021/06/03 16:38:47;;;;;;;4.07;2.50;;;;;;;;;;10523340;28;20630;-68
2021/06/03 16:43:49;;;;;;;3.55;2.40;;;;;;;;;;10527999;28;20283;-69
2021/06/03 16:48:52;;;;;;;3.67;2.47;;;;;;;;;;10527145;28;20200;-68
2021/06/03 16:53:55;;;;;;;5.57;2.78;;;;;;;;;;10527704;28;20211;-68
2021/06/03 16:58:57;;;;;;;6.25;2.80;;;;;;;;;;10522208;28;20191;-69
2021/06/03 17:04:00;;;;;;;4.05;2.35;;;;;;;;;;10525671;28;20246;-68
2021/06/03 17:09:03;;;;;;;4.47;2.45;;;;;;;;;;10521756;28;20222;-69
2021/06/03 17:14:06;;;;;;;5.22;2.70;;;;;;;;;;10530874;28;20218;-68
2021/06/03 17:19:10;;;;;;;3.50;2.20;;;;;;;;;;10525894;28;20728;-68
2021/06/03 17:24:12;;;;;;;6.35;2.70;;;;;;;;;;10523909;28;20615;-69
2021/06/03 17:29:15;;;;;;;5.13;2.47;;;;;;;;;;10516757;28;20202;-68
2021/06/03 17:34:19;;;;;;;3.95;2.35;;;;;;;;;;10511738;28;20222;-68
2021/06/03 17:39:21;;;;;;;3.03;2.15;;;;;;;;;;10520232;28;20231;-68
2021/06/03 17:44:23;;;;;;;3.70;1.98;;;;;;;;;;10521344;28;20326;-70
2021/06/03 17:49:27;;;;;;;4.45;2.35;;;;;;;;;;10520684;28;20271;-70
2021/06/03 17:54:29;;;;;;;5.88;2.22;;;;;;;;;;10517936;28;20226;-68
2021/06/03 17:59:31;;;;;;;4.70;2.55;;;;;;;;;;10525673;28;20192;-68
2021/06/03 18:04:35;;;;;;;5.00;2.45;;;;;;;;;;10522565;28;20207;-68
2021/06/03 18:09:37;;;;;;;3.70;2.30;;;;;;;;;;10523276;28;20262;-67
2021/06/03 18:14:39;;;;;;;4.07;2.33;;;;;;;;;;10518936;28;20215;-68
2021/06/03 18:19:43;;;;;;;5.63;2.63;;;;;;;;;;10522196;28;20215;-69
2021/06/03 18:24:45;;;;;;;4.80;2.50;;;;;;;;;;10523006;28;20223;-68
2021/06/03 18:29:47;;;;;;;5.20;2.40;;;;;;;;;;10525823;28;20634;-68
2021/06/03 18:34:50;;;;;;;4.47;2.30;;;;;;;;;;10515778;28;20220;-70
2021/06/03 18:39:53;;;;;;;5.07;2.47;;;;;;;;;;10523750;28;20202;-68
2021/06/03 18:44:55;;;;;;;4.57;2.40;;;;;;;;;;10523257;28;20251;-70
2021/06/03 18:49:58;;;;;;;4.10;2.47;;;;;;;;;;10519891;28;20200;-68
2021/06/03 18:55:01;;;;;;;5.63;2.40;;;;;;;;;;10518197;28;20242;-68
2021/06/03 19:00:04;;;;;;;4.77;2.60;;;;;;;;;;10520451;28;20229;-68
2021/06/03 19:05:07;;;;;;;5.33;2.70;;;;;;;;;;10524643;28;20220;-68
2021/06/03 19:10:17;;;;;;;5.23;2.40;;;;;;;;;;10519497;28;20207;-67
2021/06/03 19:15:20;;;;;;;5.33;2.70;;;;;;;;;;10527351;28;20357;-68
2021/06/03 19:20:23;;;;;;;3.83;2.23;;;;;;;;;;10521462;28;20188;-69
2021/06/03 19:25:26;;;;;;;5.43;2.60;;;;;;;;;;10525808;28;20286;-67
2021/06/03 19:30:29;;;;;;;8.17;3.93;;;;;;;;;;10522352;28;20275;-68
2021/06/03 19:35:33;;;;;;;7.43;2.83;;;;;;;;;;10528734;28;20290;-69
2021/06/03 19:40:36;;;;;;;5.33;2.53;;;;;;;;;;10513651;28;20211;-68
2021/06/03 19:45:38;;;;;;;5.10;2.67;;;;;;;;;;10529201;28;20276;-67
2021/06/03 19:50:43;;;;;;;4.20;2.20;;;;;;;;;;10519250;28;20192;-67
2021/06/03 19:55:46;;;;;;;6.13;2.60;;;;;;;;;;10523799;28;20216;-67
2021/06/03 20:00:49;;;;;;;5.57;2.63;;;;;;;;;;10523927;28;20625;-67
2021/06/03 20:05:54;;;;;;;4.80;2.50;;;;;;;;;;10521684;28;20227;-67
2021/06/03 20:10:59;;;;;;;5.27;2.73;;;;;;;;;;10526050;28;20719;-68
2021/06/03 20:16:02;;;;;;;4.80;2.80;;;;;;;;;;10528653;28;20739;-68
2021/06/03 20:21:07;;;;;;;5.00;2.40;;;;;;;;;;10528010;28;20192;-68
2021/06/03 20:26:09;;;;;;;5.40;2.73;;;;;;;;;;10523366;28;21614;-70
2021/06/03 20:31:11;;;;;;;6.53;3.27;;;;;;;;;;10531489;28;20195;-68
2021/06/03 20:36:14;;;;;;;5.57;3.40;;;;;;;;;;10528785;28;20282;-68
2021/06/03 20:41:18;;;;;;;5.87;3.27;;;;;;;;;;10530221;28;20681;-69
2021/06/03 20:46:20;;;;;;;7.33;3.70;;;;;;;;;;10524732;28;20220;-68
2021/06/03 20:51:23;;;;;;;6.33;3.63;;;;;;;;;;10528502;28;20264;-68
2021/06/03 20:56:25;;;;;;;5.90;3.20;;;;;;;;;;10527232;28;20659;-69
2021/06/03 21:01:28;;;;;;;5.63;3.00;;;;;;;;;;10526510;28;20217;-67
2021/06/03 21:06:31;;;;;;;4.87;2.80;;;;;;;;;;10529902;28;20231;-68
2021/06/03 21:11:34;;;;;;;3.90;2.40;;;;;;;;;;10527505;28;20206;-69
2021/06/03 21:16:36;;;;;;;5.30;2.60;;;;;;;;;;10522538;28;20243;-67
2021/06/03 21:21:39;;;;;;;5.67;2.50;;;;;;;;;;10528250;28;20195;-68
2021/06/03 21:26:41;;;;;;;5.43;2.80;;;;;;;;;;10519388;28;20224;-68
2021/06/03 21:31:46;;;;;;;4.87;2.50;;;;;;;;;;10528289;28;20682;-67
2021/06/03 21:36:50;;;;;;;5.23;2.33;;;;;;;;;;10519254;28;20212;-67
2021/06/03 21:41:52;;;;;;;5.80;2.33;;;;;;;;;;10527210;28;20644;-69
2021/06/03 21:46:54;;;;;;;5.57;2.60;;;;;;;;;;10526108;28;20257;-67
2021/06/03 21:51:58;;;;;;;4.30;2.27;;;;;;;;;;10526410;28;20520;-69
2021/06/03 21:57:00;;;;;;;7.83;2.80;;;;;;;;;;10528028;28;20231;-69
2021/06/03 22:02:02;;;;;;;4.03;2.17;;;;;;;;;;10521598;28;20200;-67
2021/06/03 22:07:05;;;;;;;5.93;2.13;;;;;;;;;;10514983;28;20222;-68
2021/06/03 22:12:08;;;;;;;3.80;2.00;;;;;;;;;;10525092;28;20278;-67
2021/06/03 22:17:30;;;;;;;4.53;2.33;;;;;;;;;;10526243;28;20239;-68
2021/06/03 22:22:33;;;;;;;5.17;2.67;;;;;;;;;;10529424;28;20192;-68
2021/06/03 22:27:36;;;;;;;5.23;2.00;;;;;;;;;;10527442;28;20212;-68
2021/06/03 22:32:39;;;;;;;3.40;2.20;;;;;;;;;;10528158;28;20187;-67
2021/06/03 22:37:43;;;;;;;4.30;2.23;;;;;;;;;;10533643;28;20216;-67
2021/06/03 22:42:47;;;;;;;4.17;2.30;;;;;;;;;;10519321;28;20563;-67
2021/06/03 22:47:49;;;;;;;4.27;2.50;;;;;;;;;;10532616;28;20350;-67
2021/06/03 22:52:53;;;;;;;5.53;2.37;;;;;;;;;;10527267;28;20262;-69
2021/06/03 22:57:56;;;;;;;4.30;2.17;;;;;;;;;;10533081;28;20220;-69
2021/06/03 23:02:58;;;;;;;4.10;2.20;;;;;;;;;;10532501;28;20366;-68
2021/06/03 23:08:04;;;;;;;4.13;2.13;;;;;;;;;;10529444;28;20214;-69
2021/06/03 23:13:06;;;;;;;4.17;2.20;;;;;;;;;;10526967;28;20272;-67
2021/06/03 23:18:08;;;;;;;5.30;2.30;;;;;;;;;;10532653;28;20566;-67
2021/06/03 23:23:11;;;;;;;6.37;2.30;;;;;;;;;;10527302;28;20217;-68
2021/06/03 23:28:13;;;;;;;5.97;2.47;;;;;;;;;;10533843;28;20195;-67
2021/06/03 23:33:16;;;;;;;5.13;2.40;;;;;;;;;;10528669;28;20235;-68
2021/06/03 23:38:20;;;;;;;4.10;2.30;;;;;;;;;;10531298;28;20191;-68
2021/06/03 23:43:22;;;;;;;5.63;2.23;;;;;;;;;;10532332;28;20965;-67
2021/06/03 23:48:24;;;;;;;5.10;2.10;;;;;;;;;;10532405;28;20192;-68
2021/06/03 23:53:27;;;;;;;5.10;2.60;;;;;;;;;;10531939;28;20212;-67
2021/06/03 23:58:35;;;;;;;5.33;2.60;;;;;;;;;;10532766;28;20244;-70
